Time;durP1;ratioP1;P1;durP2;ratioP2;P2;SDS_P1;SDS_P2;PMS_P1;PMS_P2;Temp;Humidity;BMP_temperature;BMP_pressure;BME280_temperature;BME280_humidity;BME280_pressure;Samples;Min_cycle;Max_cycle;Signal;HPM_P1;HPM_P2
2021/06/12 00:02:11;;;;;;;3.80;2.65;;;;;;;15.73;86.14;98766.28;5010971;28;20233;-63
2021/06/12 00:04:37;;;;;;;3.10;2.70;;;;;;;15.77;86.19;98765.25;5007424;28;20061;-63
2021/06/12 00:07:02;;;;;;;5.25;2.85;;;;;;;15.66;84.43;98762.13;5007414;28;20029;-63
2021/06/12 00:09:28;;;;;;;4.95;2.30;;;;;;;15.40;85.75;98763.09;5009801;28;20017;-63
2021/06/12 00:11:54;;;;;;;2.20;2.00;;;;;;;15.35;85.96;98759.72;5023353;28;20029;-63
2021/06/12 00:14:20;;;;;;;2.60;2.40;;;;;;;15.41;86.29;98763.97;5026933;28;20248;-63
2021/06/12 00:16:46;;;;;;;3.95;2.70;;;;;;;15.40;86.52;98760.44;5026876;28;20068;-63
2021/06/12 00:19:11;;;;;;;3.53;3.22;;;;;;;15.36;86.13;98764.09;5018856;28;20018;-63
2021/06/12 00:21:37;;;;;;;5.03;2.60;;;;;;;15.26;86.85;98765.34;5019228;28;20032;-63
2021/06/12 00:24:04;;;;;;;2.60;2.40;;;;;;;15.21;86.49;98769.94;5026689;28;20045;-63
2021/06/12 00:26:29;;;;;;;3.03;2.38;;;;;;;15.19;86.48;98764.69;5007798;28;20022;-63
2021/06/12 00:28:54;;;;;;;3.47;3.10;;;;;;;15.29;86.29;98769.66;5006936;28;20049;-63
2021/06/12 00:31:20;;;;;;;3.53;2.58;;;;;;;15.23;86.67;98766.31;5006939;28;20109;-63
2021/06/12 00:33:46;;;;;;;3.10;2.60;;;;;;;15.26;87.25;98769.78;5006900;28;20086;-63
2021/06/12 00:36:11;;;;;;;5.75;2.80;;;;;;;15.21;86.99;98769.94;5009988;28;20093;-63
2021/06/12 00:38:36;;;;;;;3.75;2.90;;;;;;;15.12;86.52;98763.19;5006801;28;20113;-63
2021/06/12 00:41:02;;;;;;;4.57;2.88;;;;;;;15.25;86.77;98770.72;5006638;28;20034;-63
2021/06/12 00:43:27;;;;;;;5.88;2.97;;;;;;;15.14;86.50;98776.38;5006726;28;20041;-63
2021/06/12 00:45:53;;;;;;;4.43;2.58;;;;;;;15.06;85.89;98762.50;5006691;28;20301;-63
2021/06/12 00:48:19;;;;;;;3.10;2.78;;;;;;;14.99;85.58;98763.66;5006644;28;20036;-63
2021/06/12 00:50:44;;;;;;;5.75;2.88;;;;;;;14.86;86.37;98765.00;5006520;28;20073;-63
2021/06/12 00:53:10;;;;;;;2.85;2.58;;;;;;;14.95;86.41;98770.00;5009584;28;20014;-63
2021/06/12 00:55:36;;;;;;;3.85;2.78;;;;;;;14.99;86.48;98761.00;5009848;28;20046;-63
2021/06/12 00:58:04;;;;;;;4.65;2.58;;;;;;;15.10;86.48;98774.78;5024599;28;20313;-63
2021/06/12 01:00:29;;;;;;;2.72;2.50;;;;;;;15.15;86.49;98775.44;5020844;28;20038;-63
2021/06/12 01:02:54;;;;;;;3.10;2.80;;;;;;;15.13;86.86;98774.66;5006278;28;20217;-63
2021/06/12 01:05:21;;;;;;;4.95;2.95;;;;;;;15.12;87.28;98772.91;5005741;28;20085;-63
2021/06/12 01:07:47;;;;;;;3.20;2.90;;;;;;;15.12;87.46;98772.91;5006259;28;20037;-63
2021/06/12 01:10:15;;;;;;;3.67;2.70;;;;;;;15.13;87.10;98764.91;5006395;28;20030;-63
2021/06/12 01:12:53;;;;;;;4.13;2.88;;;;;;;15.16;87.58;98758.66;5011159;28;20089;-63
2021/06/12 01:15:19;;;;;;;4.47;2.50;;;;;;;15.09;86.53;98762.41;5025766;28;20081;-63
2021/06/12 01:17:59;;;;;;;2.53;2.33;;;;;;;15.08;86.91;98761.56;5025935;28;20025;-63
2021/06/12 01:21:02;;;;;;;7.97;2.40;;;;;;;14.98;86.53;98764.59;5019268;28;20183;-63
2021/06/12 01:24:16;;;;;;;5.07;2.58;;;;;;;15.00;86.56;98768.06;5014137;28;20026;-63
2021/06/12 01:27:17;;;;;;;3.42;2.60;;;;;;;14.92;87.01;98770.09;4927171;29;20201;-63
2021/06/12 01:29:54;;;;;;;5.93;2.75;;;;;;;15.01;87.48;98764.47;4927257;29;20028;-63
2021/06/12 01:32:21;;;;;;;4.32;2.58;;;;;;;15.05;87.00;98760.78;4993792;28;20046;-63
2021/06/12 01:34:48;;;;;;;3.83;2.70;;;;;;;14.85;85.76;98752.69;5005770;28;20124;-63
2021/06/12 01:37:16;;;;;;;3.85;2.60;;;;;;;14.75;86.35;98745.97;5005639;28;20088;-63
2021/06/12 01:39:43;;;;;;;2.30;2.05;;;;;;;14.83;85.54;98739.47;5008824;28;20022;-63
2021/06/12 01:42:11;;;;;;;7.85;2.33;;;;;;;14.92;85.40;98748.91;5020112;28;20047;-63
2021/06/12 01:44:38;;;;;;;4.40;2.17;;;;;;;14.86;85.44;98743.81;5023390;28;20049;-63
2021/06/12 01:47:04;;;;;;;2.90;2.42;;;;;;;14.79;86.68;98742.28;5005538;28;20054;-63
2021/06/12 01:49:32;;;;;;;4.55;2.50;;;;;;;14.83;86.35;98738.59;5005408;28;20313;-63
2021/06/12 01:52:00;;;;;;;4.97;2.28;;;;;;;14.87;85.68;98734.91;5005441;28;20025;-63
2021/06/12 01:54:26;;;;;;;4.68;2.47;;;;;;;14.78;86.37;98730.81;5010204;28;20089;-63
2021/06/12 01:56:54;;;;;;;6.95;2.80;;;;;;;14.78;87.11;98745.88;5025068;28;20365;-63
2021/06/12 01:59:20;;;;;;;3.47;2.63;;;;;;;14.83;87.16;98733.31;5016354;28;20373;-63
2021/06/12 02:01:48;;;;;;;4.70;2.63;;;;;;;14.78;86.13;98736.13;5005258;28;20368;-63
2021/06/12 02:04:16;;;;;;;2.78;2.38;;;;;;;14.67;86.93;98737.41;5005179;28;20022;-63
2021/06/12 02:06:43;;;;;;;3.88;2.08;;;;;;;14.58;86.71;98743.88;5005163;28;20085;-63
2021/06/12 02:09:11;;;;;;;3.00;2.47;;;;;;;14.65;86.76;98755.16;5013734;28;20053;-63
2021/06/12 02:11:37;;;;;;;3.50;2.28;;;;;;;14.53;86.90;98758.19;5024739;28;20030;-64
2021/06/12 02:14:03;;;;;;;3.13;2.40;;;;;;;14.45;87.53;98755.81;5017645;28;20022;-64
2021/06/12 02:16:29;;;;;;;3.65;2.42;;;;;;;14.50;87.75;98756.53;5004904;28;20030;-64
2021/06/12 02:18:56;;;;;;;3.20;2.47;;;;;;;14.40;88.00;98754.22;5005012;28;20057;-64
2021/06/12 02:21:22;;;;;;;3.90;2.78;;;;;;;14.40;87.77;98759.53;5005108;28;20064;-65
2021/06/12 02:23:52;;;;;;;2.55;2.35;;;;;;;14.42;86.73;98755.03;5004856;28;20030;-65
2021/06/12 02:26:20;;;;;;;4.93;2.17;;;;;;;14.37;86.58;98756.97;5004810;28;20026;-65
2021/06/12 02:28:49;;;;;;;4.57;2.40;;;;;;;14.43;87.07;98757.63;5004825;28;20026;-65
2021/06/12 02:31:20;;;;;;;4.05;2.40;;;;;;;14.31;87.60;98754.53;5004781;28;20093;-65
2021/06/12 02:33:46;;;;;;;2.95;2.28;;;;;;;14.25;88.11;98749.41;5004824;28;20034;-65
2021/06/12 02:36:12;;;;;;;2.83;2.15;;;;;;;14.24;87.91;98753.00;5004689;28;20199;-65
2021/06/12 02:38:38;;;;;;;5.82;2.10;;;;;;;14.23;88.16;98756.53;5004654;28;20032;-65
2021/06/12 02:41:03;;;;;;;2.90;2.40;;;;;;;14.27;87.90;98755.53;5004396;28;20038;-65
2021/06/12 02:43:29;;;;;;;4.10;2.60;;;;;;;14.26;87.53;98745.84;5004622;28;20033;-65
2021/06/12 02:45:55;;;;;;;3.05;2.20;;;;;;;14.23;87.75;98756.53;5004584;28;20033;-65
2021/06/12 02:48:24;;;;;;;3.35;2.35;;;;;;;14.22;88.17;98760.06;5007581;28;20030;-65
2021/06/12 02:50:50;;;;;;;2.85;2.53;;;;;;;14.24;88.02;98759.13;5020076;28;20030;-65
2021/06/12 02:53:17;;;;;;;5.25;2.50;;;;;;;14.29;88.56;98758.97;5021924;28;20025;-65
2021/06/12 02:55:47;;;;;;;5.25;2.55;;;;;;;14.35;88.02;98762.31;5004457;28;20022;-65
2021/06/12 02:58:15;;;;;;;3.22;2.80;;;;;;;14.23;87.99;98764.47;5004550;28;20026;-65
2021/06/12 03:00:43;;;;;;;3.85;2.85;;;;;;;14.28;88.18;98760.78;5004417;28;20022;-65
2021/06/12 03:03:12;;;;;;;3.10;2.78;;;;;;;14.21;88.13;98766.28;5004392;28;20078;-65
2021/06/12 03:05:43;;;;;;;4.57;2.47;;;;;;;14.23;88.20;98767.13;5015924;28;20388;-65
2021/06/12 03:08:09;;;;;;;3.83;2.60;;;;;;;14.15;87.85;98769.13;5004411;28;20068;-65
2021/06/12 03:10:36;;;;;;;2.75;2.47;;;;;;;14.15;88.14;98762.06;5015186;28;20048;-65
2021/06/12 03:13:03;;;;;;;2.78;2.55;;;;;;;14.11;88.20;98759.56;5015860;28;20019;-65
2021/06/12 03:15:32;;;;;;;2.40;2.20;;;;;;;14.16;88.38;98760.25;5019133;28;20037;-65
2021/06/12 03:17:58;;;;;;;2.95;2.35;;;;;;;14.18;87.77;98764.59;5015143;28;20033;-65
2021/06/12 03:20:24;;;;;;;3.63;2.38;;;;;;;14.09;87.59;98764.91;5004282;28;20250;-65
2021/06/12 03:22:51;;;;;;;2.85;2.40;;;;;;;14.11;87.13;98770.16;5004235;28;20026;-65
2021/06/12 03:25:22;;;;;;;5.53;2.40;;;;;;;14.04;87.76;98771.22;5004471;28;20030;-65
2021/06/12 03:27:48;;;;;;;2.83;2.60;;;;;;;14.10;88.82;98781.63;5006500;28;20026;-65
2021/06/12 03:30:15;;;;;;;3.20;2.40;;;;;;;14.14;89.05;98778.00;5008015;28;20026;-65
2021/06/12 03:32:41;;;;;;;3.63;2.72;;;;;;;14.17;88.96;98772.56;5008875;28;20026;-65
2021/06/12 03:35:08;;;;;;;4.22;2.70;;;;;;;14.24;88.44;98771.53;4990638;28;20022;-65
2021/06/12 03:37:35;;;;;;;4.28;2.65;;;;;;;14.19;89.21;98781.34;5007968;28;20037;-65
2021/06/12 03:40:00;;;;;;;4.35;2.83;;;;;;;14.26;88.64;98773.19;5007756;28;20042;-65
2021/06/12 03:42:26;;;;;;;2.83;2.42;;;;;;;14.34;87.77;98775.59;5007875;28;20213;-65
2021/06/12 03:44:55;;;;;;;3.05;2.58;;;;;;;14.37;86.98;98784.28;5007825;28;20033;-65
2021/06/12 03:47:22;;;;;;;3.22;2.35;;;;;;;14.24;87.46;98780.31;5007789;28;20033;-65
2021/06/12 03:49:48;;;;;;;4.32;2.50;;;;;;;14.23;87.67;98789.19;5010493;28;20081;-65
2021/06/12 03:52:15;;;;;;;2.92;2.35;;;;;;;14.29;88.12;98782.81;5007690;28;20041;-65
2021/06/12 03:54:41;;;;;;;7.78;2.53;;;;;;;14.35;88.03;98782.63;5007644;28;20329;-65
2021/06/12 03:57:07;;;;;;;4.70;2.63;;;;;;;14.40;87.86;98786.00;5007629;28;20068;-65
2021/06/12 03:59:32;;;;;;;3.20;2.47;;;;;;;14.33;87.97;98789.78;5007568;28;20027;-65
2021/06/12 04:02:00;;;;;;;5.35;2.63;;;;;;;14.33;88.41;98790.63;5007469;28;20026;-65
2021/06/12 04:04:26;;;;;;;4.15;2.60;;;;;;;14.37;88.78;98796.69;5010707;28;20054;-65
2021/06/12 04:06:52;;;;;;;3.33;2.30;;;;;;;14.48;88.60;98797.19;5007371;28;20097;-65
2021/06/12 04:09:17;;;;;;;2.88;2.50;;;;;;;14.61;88.79;98795.88;5007288;28;20030;-65
2021/06/12 04:11:43;;;;;;;4.13;2.33;;;;;;;14.70;88.19;98806.19;5007320;28;20400;-65
2021/06/12 04:14:09;;;;;;;4.95;2.25;;;;;;;14.79;86.50;98803.22;5007515;28;20034;-65
2021/06/12 04:16:34;;;;;;;3.47;2.63;;;;;;;14.61;86.40;98802.06;5007258;28;20338;-65
2021/06/12 04:19:01;;;;;;;4.75;2.05;;;;;;;14.72;86.19;98804.38;5007187;28;20022;-65
2021/06/12 04:21:26;;;;;;;2.30;2.10;;;;;;;14.74;86.27;98818.41;5010033;28;20026;-65
2021/06/12 04:23:52;;;;;;;3.70;2.10;;;;;;;14.82;86.18;98819.91;5007075;28;20242;-65
2021/06/12 04:26:17;;;;;;;2.47;1.85;;;;;;;14.92;85.64;98812.50;5007112;28;20049;-65
2021/06/12 04:28:43;;;;;;;3.47;1.98;;;;;;;14.95;86.78;98812.41;5006979;28;20022;-65
2021/06/12 04:31:08;;;;;;;2.50;2.05;;;;;;;15.15;86.27;98812.56;5006901;28;20036;-65
2021/06/12 04:33:33;;;;;;;3.05;2.40;;;;;;;15.07;85.79;98814.63;5006932;28;20049;-65
2021/06/12 04:35:59;;;;;;;3.65;1.75;;;;;;;15.18;84.74;98815.13;5009737;28;20018;-65
2021/06/12 04:38:25;;;;;;;2.03;1.88;;;;;;;15.23;84.85;98808.72;5005815;28;20050;-65
2021/06/12 04:40:50;;;;;;;2.88;1.65;;;;;;;15.43;83.90;98810.72;5006562;28;20046;-65
2021/06/12 04:43:16;;;;;;;1.85;1.50;;;;;;;15.66;83.24;98801.94;5006858;28;20073;-65
2021/06/12 04:45:41;;;;;;;3.53;2.20;;;;;;;15.78;83.20;98798.81;5006676;28;20315;-65
2021/06/12 04:48:07;;;;;;;3.38;1.90;;;;;;;15.78;83.23;98794.38;5006666;28;20052;-65
2021/06/12 04:50:36;;;;;;;5.13;2.00;;;;;;;16.08;83.00;98801.19;5006236;28;20414;-65
2021/06/12 04:53:06;;;;;;;4.65;1.77;;;;;;;16.49;82.68;98808.41;5007982;28;20036;-65
2021/06/12 04:55:32;;;;;;;2.33;1.75;;;;;;;17.09;81.15;98800.53;5006767;28;20064;-65
2021/06/12 04:57:57;;;;;;;5.10;1.95;;;;;;;17.55;79.67;98798.56;5006487;28;20026;-65
2021/06/12 05:00:23;;;;;;;2.20;1.77;;;;;;;18.02;77.90;98795.50;5006429;28;20019;-65
2021/06/12 05:02:49;;;;;;;2.50;1.33;;;;;;;18.59;75.64;98802.53;5006408;28;20085;-65
2021/06/12 05:05:14;;;;;;;1.40;1.30;;;;;;;19.59;72.08;98800.97;5006432;28;20032;-65
2021/06/12 05:07:40;;;;;;;1.30;1.20;;;;;;;19.96;72.18;98809.59;5009343;28;20030;-65
2021/06/12 05:10:07;;;;;;;2.25;1.30;;;;;;;20.35;70.71;98809.28;5006154;28;20050;-65
2021/06/12 05:12:33;;;;;;;1.20;1.10;;;;;;;20.71;70.23;98812.53;5006200;28;20030;-65
2021/06/12 05:15:01;;;;;;;3.55;1.30;;;;;;;20.97;70.09;98807.44;5006178;28;20384;-65
2021/06/12 05:17:27;;;;;;;3.17;1.10;;;;;;;21.24;68.95;98811.16;5006132;28;20033;-65
2021/06/12 05:19:53;;;;;;;2.42;1.27;;;;;;;21.40;68.53;98820.97;5006339;28;20081;-65
2021/06/12 05:22:23;;;;;;;4.68;1.02;;;;;;;21.49;67.42;98826.66;5006350;28;20026;-65
2021/06/12 05:24:48;;;;;;;4.75;1.25;;;;;;;21.82;67.18;98829.09;5008276;28;20041;-65
2021/06/12 05:27:15;;;;;;;1.05;1.00;;;;;;;21.72;68.10;98827.91;5005999;28;20026;-65
2021/06/12 05:29:40;;;;;;;2.28;1.00;;;;;;;22.10;67.74;98826.44;5005805;28;20050;-65
2021/06/12 05:32:06;;;;;;;3.35;1.42;;;;;;;22.42;67.38;98817.22;5005823;28;20074;-65
2021/06/12 05:34:31;;;;;;;1.70;0.98;;;;;;;22.05;68.46;98825.88;5005754;28;20030;-65
2021/06/12 05:36:58;;;;;;;3.03;1.05;;;;;;;22.67;67.50;98828.13;5005773;28;20023;-65
2021/06/12 05:39:23;;;;;;;1.55;1.10;;;;;;;22.55;66.29;98823.56;5008687;28;20026;-65
2021/06/12 05:41:49;;;;;;;1.58;0.90;;;;;;;22.54;66.14;98824.53;5005478;28;20286;-65
2021/06/12 05:44:14;;;;;;;3.08;1.20;;;;;;;23.39;66.31;98823.28;5005606;28;20085;-65
2021/06/12 05:46:40;;;;;;;3.05;1.17;;;;;;;24.15;60.48;98822.41;5005567;28;20073;-65
2021/06/12 05:49:05;;;;;;;4.60;1.35;;;;;;;24.33;61.49;98821.06;5005420;28;20055;-65
2021/06/12 05:51:31;;;;;;;2.55;1.10;;;;;;;23.83;63.28;98826.47;5005175;28;20042;-65
2021/06/12 05:53:56;;;;;;;2.90;1.10;;;;;;;23.86;61.00;98820.88;5005638;28;20024;-65
2021/06/12 05:56:22;;;;;;;2.35;0.90;;;;;;;24.19;60.56;98823.91;5006050;28;20026;-65
2021/06/12 05:58:47;;;;;;;3.80;0.93;;;;;;;24.03;61.87;98823.28;5005371;28;20101;-66
2021/06/12 06:01:13;;;;;;;0.90;0.90;;;;;;;24.00;61.88;98828.00;5005290;28;20077;-66
2021/06/12 06:03:38;;;;;;;1.30;1.20;;;;;;;23.92;62.95;98831.19;5005280;28;20078;-66
2021/06/12 06:06:06;;;;;;;1.17;0.80;;;;;;;23.93;63.89;98822.16;5005253;28;20033;-66
2021/06/12 06:08:32;;;;;;;5.28;1.00;;;;;;;24.28;60.76;98823.25;5005114;28;20054;-66
2021/06/12 06:10:57;;;;;;;1.05;0.85;;;;;;;24.94;59.73;98823.75;5008129;28;20081;-66
2021/06/12 06:13:22;;;;;;;2.45;1.00;;;;;;;25.57;59.22;98830.66;5005060;28;20073;-66
2021/06/12 06:15:48;;;;;;;1.23;0.82;;;;;;;25.94;58.22;98824.97;5005296;28;20022;-66
2021/06/12 06:18:15;;;;;;;4.20;1.08;;;;;;;25.76;57.64;98833.66;5005013;28;20029;-66
2021/06/12 06:20:44;;;;;;;1.52;1.00;;;;;;;25.48;58.65;98839.44;5004868;28;20089;-66
2021/06/12 06:23:09;;;;;;;4.38;1.20;;;;;;;25.87;56.89;98825.56;5005191;28;20083;-66
2021/06/12 06:25:35;;;;;;;1.95;1.02;;;;;;;26.47;56.19;98818.03;5007889;28;20017;-64
2021/06/12 06:28:00;;;;;;;2.55;1.20;;;;;;;26.50;55.87;98824.06;5004816;28;20325;-64
2021/06/12 06:30:26;;;;;;;1.63;1.00;;;;;;;25.66;56.89;98821.88;5004779;28;20266;-64
2021/06/12 06:32:51;;;;;;;4.53;1.40;;;;;;;26.24;56.69;98829.84;5003595;28;20333;-64
2021/06/12 06:35:17;;;;;;;3.63;1.13;;;;;;;26.57;55.48;98844.19;5004812;28;20033;-64
2021/06/12 06:37:43;;;;;;;2.00;1.10;;;;;;;27.26;52.64;98843.00;5004691;28;20030;-64
2021/06/12 06:40:09;;;;;;;1.65;1.00;;;;;;;27.76;51.47;98847.69;5004523;28;20153;-64
2021/06/12 06:42:34;;;;;;;2.15;1.30;;;;;;;28.14;51.31;98849.81;5007418;28;20257;-64
2021/06/12 06:45:00;;;;;;;3.00;1.30;;;;;;;28.48;50.39;98852.19;5004674;28;20093;-64
2021/06/12 06:47:25;;;;;;;2.25;1.10;;;;;;;28.27;51.05;98864.88;5004578;28;20077;-64
2021/06/12 06:49:51;;;;;;;4.38;1.63;;;;;;;28.45;49.38;98863.28;5004464;28;20050;-64
2021/06/12 06:52:16;;;;;;;1.75;1.10;;;;;;;28.76;50.60;98866.84;5004576;28;20317;-64
2021/06/12 06:54:42;;;;;;;2.35;1.25;;;;;;;28.88;47.62;98865.72;5004501;28;20032;-64
2021/06/12 06:57:08;;;;;;;2.47;1.15;;;;;;;29.00;49.37;98875.47;5007871;28;20081;-64
2021/06/12 06:59:34;;;;;;;3.00;1.42;;;;;;;28.86;47.72;98873.97;5004430;28;20026;-64
2021/06/12 07:02:00;;;;;;;4.32;1.08;;;;;;;29.35;46.42;98872.31;5003978;28;20046;-64
2021/06/12 07:04:26;;;;;;;2.00;1.25;;;;;;;29.66;47.41;98865.75;5004433;28;20250;-64
2021/06/12 07:06:51;;;;;;;2.22;1.40;;;;;;;29.46;46.18;98867.59;5004419;28;20031;-64
2021/06/12 07:09:16;;;;;;;3.58;1.63;;;;;;;29.55;46.05;98860.47;5004335;28;20093;-64
2021/06/12 07:11:42;;;;;;;2.08;1.50;;;;;;;29.24;48.23;98868.69;5004311;28;20089;-64
2021/06/12 07:14:07;;;;;;;4.25;1.60;;;;;;;29.10;44.86;98860.97;5007451;28;20313;-64
2021/06/12 07:16:33;;;;;;;4.15;1.63;;;;;;;28.86;47.68;98862.31;5007223;28;20037;-64
2021/06/12 07:18:58;;;;;;;3.40;1.40;;;;;;;29.09;46.52;98864.69;5020009;28;20072;-64
2021/06/12 07:21:24;;;;;;;2.65;1.58;;;;;;;29.32;46.41;98869.88;5021600;28;20026;-64
2021/06/12 07:23:49;;;;;;;2.90;1.30;;;;;;;29.50;46.81;98863.59;5004518;28;20030;-64
2021/06/12 07:26:15;;;;;;;3.63;1.63;;;;;;;29.85;45.16;98868.47;5004244;28;20026;-64
2021/06/12 07:28:40;;;;;;;3.13;1.40;;;;;;;28.94;46.11;98863.31;5004254;28;20053;-64
2021/06/12 07:31:05;;;;;;;5.05;1.60;;;;;;;29.45;46.18;98870.44;5004123;28;20089;-64
2021/06/12 07:33:31;;;;;;;2.00;1.25;;;;;;;29.82;46.44;98868.75;5006181;28;20085;-64
2021/06/12 07:35:57;;;;;;;5.85;1.63;;;;;;;30.14;45.51;98870.16;5023776;28;20022;-64
2021/06/12 07:38:22;;;;;;;4.15;1.35;;;;;;;30.39;45.73;98874.97;5023762;28;20030;-64
2021/06/12 07:40:48;;;;;;;2.97;1.40;;;;;;;29.70;46.07;98870.75;5023497;28;20104;-64
2021/06/12 07:43:18;;;;;;;2.22;1.13;;;;;;;30.81;43.76;98859.09;5023971;28;20021;-64
2021/06/12 07:45:44;;;;;;;1.47;1.33;;;;;;;30.01;44.16;98866.00;5024022;28;20018;-64
2021/06/12 07:48:10;;;;;;;4.03;1.10;;;;;;;28.29;48.67;98857.47;5023659;28;20037;-64
2021/06/12 07:50:35;;;;;;;1.85;0.95;;;;;;;28.46;49.32;98861.44;5023576;28;20025;-64
2021/06/12 07:53:01;;;;;;;1.98;1.10;;;;;;;28.82;47.16;98867.13;5023857;28;20098;-64
2021/06/12 07:55:26;;;;;;;2.30;1.15;;;;;;;29.05;46.59;98867.81;5023616;28;20017;-64
2021/06/12 07:57:51;;;;;;;1.88;1.10;;;;;;;29.55;46.00;98871.31;5023577;28;20072;-64
2021/06/12 08:00:17;;;;;;;2.03;1.20;;;;;;;30.16;44.89;98861.84;5023593;28;20025;-64
2021/06/12 08:02:43;;;;;;;2.47;1.20;;;;;;;29.59;46.14;98864.59;5023555;28;20068;-64
2021/06/12 08:05:08;;;;;;;2.70;1.10;;;;;;;30.03;45.19;98861.31;5023508;28;20351;-64
2021/06/12 08:07:34;;;;;;;2.47;1.20;;;;;;;29.40;45.40;98864.56;5023745;28;20063;-64
2021/06/12 08:10:02;;;;;;;1.45;1.30;;;;;;;29.47;44.79;98854.88;5021624;28;20022;-64
2021/06/12 08:12:29;;;;;;;5.70;1.30;;;;;;;29.37;46.56;98856.72;5018785;28;20017;-64
2021/06/12 08:14:54;;;;;;;1.23;1.13;;;;;;;30.40;43.61;98848.69;5026613;28;20026;-64
2021/06/12 08:17:20;;;;;;;2.70;1.40;;;;;;;29.13;45.89;98844.44;5021794;28;20217;-64
2021/06/12 08:19:45;;;;;;;2.95;1.23;;;;;;;29.02;47.58;98841.78;5026448;28;20028;-64
2021/06/12 08:22:12;;;;;;;1.73;1.17;;;;;;;30.14;45.74;98844.84;5024112;28;20018;-64
2021/06/12 08:24:38;;;;;;;2.70;1.38;;;;;;;30.20;44.27;98841.56;5030296;28;20075;-64
2021/06/12 08:27:04;;;;;;;2.58;1.35;;;;;;;31.09;43.88;98842.63;5029218;28;20030;-64
2021/06/12 08:29:29;;;;;;;3.15;1.13;;;;;;;31.20;42.50;98833.41;5026621;28;20030;-64
2021/06/12 08:31:55;;;;;;;1.67;1.02;;;;;;;30.95;41.84;98828.72;5026597;28;20033;-64
2021/06/12 08:34:22;;;;;;;1.88;1.13;;;;;;;30.49;43.46;98831.47;5026804;28;20026;-64
2021/06/12 08:36:47;;;;;;;4.88;1.20;;;;;;;31.31;41.29;98835.94;5026583;28;20026;-64
2021/06/12 08:39:13;;;;;;;4.13;1.30;;;;;;;31.68;40.59;98844.81;5036232;28;20087;-64
2021/06/12 08:41:38;;;;;;;4.38;1.55;;;;;;;31.70;40.23;98842.75;5042202;28;20353;-64
2021/06/12 08:44:04;;;;;;;3.53;1.00;;;;;;;31.69;41.92;98840.19;5025449;28;20041;-64
2021/06/12 08:46:30;;;;;;;4.28;1.20;;;;;;;30.31;43.45;98841.41;5024855;28;20324;-64
2021/06/12 08:48:56;;;;;;;4.43;1.10;;;;;;;30.52;42.95;98845.63;5025621;28;20026;-64
2021/06/12 08:51:22;;;;;;;1.65;1.08;;;;;;;30.32;42.85;98835.84;5025517;28;20022;-64
2021/06/12 08:53:48;;;;;;;4.50;1.20;;;;;;;29.90;43.99;98833.63;5025290;28;20056;-64
2021/06/12 08:56:14;;;;;;;2.67;1.05;;;;;;;28.84;45.89;98838.06;5025092;28;20080;-64
2021/06/12 08:58:39;;;;;;;2.95;1.27;;;;;;;28.26;48.40;98841.50;5019595;28;20030;-64
2021/06/12 09:01:05;;;;;;;1.15;0.88;;;;;;;28.57;47.58;98840.50;5018688;28;20077;-64
2021/06/12 09:03:32;;;;;;;2.05;0.90;;;;;;;28.95;47.11;98846.06;5025082;28;20021;-64
2021/06/12 09:06:01;;;;;;;1.27;0.90;;;;;;;28.72;46.39;98844.56;5025038;28;20021;-64
2021/06/12 09:08:29;;;;;;;2.72;0.80;;;;;;;28.23;46.53;98841.78;5025285;28;20244;-64
2021/06/12 09:11:31;;;;;;;1.20;0.70;;;;;;;28.29;46.68;98841.22;5024853;28;20022;-63
2021/06/12 09:14:01;;;;;;;2.33;0.70;;;;;;;27.64;47.50;98848.75;4981058;28;20029;-63
2021/06/12 09:16:32;;;;;;;1.52;0.93;;;;;;;28.16;48.46;98845.97;5023943;28;20105;-63
2021/06/12 09:19:10;;;;;;;2.70;1.40;;;;;;;28.42;47.89;98847.28;5024578;28;20033;-63
2021/06/12 09:21:38;;;;;;;1.63;0.80;;;;;;;29.34;44.99;98852.44;5025526;28;20194;-63
2021/06/12 09:24:07;;;;;;;2.13;0.80;;;;;;;29.13;45.55;98855.28;5025242;28;20025;-63
2021/06/12 09:26:51;;;;;;;1.08;0.60;;;;;;;29.33;44.53;98856.16;5025238;28;20026;-63
2021/06/12 09:29:19;;;;;;;1.23;0.70;;;;;;;29.57;43.38;98858.44;5023347;28;20309;-63
2021/06/12 09:31:49;;;;;;;4.05;0.80;;;;;;;29.50;43.84;98857.31;5008760;28;20026;-63
2021/06/12 09:34:18;;;;;;;1.13;0.80;;;;;;;30.32;43.03;98862.13;5005839;28;20030;-63
2021/06/12 09:36:47;;;;;;;1.88;0.70;;;;;;;29.80;42.78;98859.91;5005735;28;20022;-63
2021/06/12 09:39:13;;;;;;;1.45;0.80;;;;;;;29.57;42.65;98859.31;5005731;28;20026;-63
2021/06/12 09:41:54;;;;;;;4.43;0.80;;;;;;;29.52;44.47;98861.59;5006016;28;20042;-63
2021/06/12 09:44:30;;;;;;;1.38;0.65;;;;;;;30.24;42.13;98872.88;5024926;28;20080;-63
2021/06/12 09:46:55;;;;;;;2.75;0.40;;;;;;;30.02;39.02;98865.03;5010456;28;20026;-63
2021/06/12 09:49:30;;;;;;;0.75;0.50;;;;;;;29.92;41.41;98866.88;5005432;28;20118;-63
2021/06/12 09:52:06;;;;;;;1.83;0.60;;;;;;;29.69;40.21;98874.47;5005577;28;20348;-63
2021/06/12 09:54:38;;;;;;;2.05;0.50;;;;;;;29.42;42.54;98878.88;5005690;28;20049;-63
2021/06/12 09:57:05;;;;;;;3.25;0.60;;;;;;;28.99;42.43;98877.34;5005622;28;20218;-63
2021/06/12 10:00:02;;;;;;;0.57;0.50;;;;;;;29.18;40.72;98885.56;5005613;28;20061;-63
2021/06/12 10:02:41;;;;;;;2.15;0.50;;;;;;;29.94;39.63;98873.91;5008058;28;20030;-63
2021/06/12 10:05:09;;;;;;;2.10;0.50;;;;;;;30.24;40.03;98876.44;5005278;28;20026;-63
2021/06/12 10:07:35;;;;;;;3.92;0.60;;;;;;;30.03;40.61;98878.47;5005469;28;20034;-63
2021/06/12 10:10:08;;;;;;;5.10;0.60;;;;;;;29.63;40.61;98874.19;5005109;28;20030;-63
2021/06/12 10:12:34;;;;;;;1.80;0.55;;;;;;;29.85;39.83;98876.59;5013041;28;20085;-63
2021/06/12 10:15:01;;;;;;;3.90;0.50;;;;;;;29.57;41.61;98882.84;5025003;28;20022;-63
2021/06/12 10:17:28;;;;;;;0.60;0.30;;;;;;;29.42;41.70;98887.00;5018060;28;20025;-63
2021/06/12 10:19:56;;;;;;;0.82;0.50;;;;;;;29.20;43.59;98888.97;5003577;28;20046;-63
2021/06/12 10:22:22;;;;;;;2.67;0.47;;;;;;;30.21;41.20;98886.75;5004617;28;20022;-63
2021/06/12 10:24:48;;;;;;;1.83;0.40;;;;;;;30.06;40.18;98877.31;5004927;28;20030;-63
2021/06/12 10:27:14;;;;;;;0.60;0.40;;;;;;;28.89;41.91;98872.88;5004919;28;20022;-63
2021/06/12 10:29:43;;;;;;;2.25;0.60;;;;;;;29.05;43.21;98876.78;5004756;28;20022;-63
2021/06/12 10:32:10;;;;;;;1.85;0.50;;;;;;;29.23;42.67;98870.72;5004424;28;20045;-63
2021/06/12 10:34:36;;;;;;;1.98;0.50;;;;;;;29.21;43.35;98874.38;5008232;28;20276;-63
2021/06/12 10:37:07;;;;;;;4.53;0.50;;;;;;;29.15;41.82;98864.13;5003838;28;20022;-64
2021/06/12 10:39:35;;;;;;;1.73;0.50;;;;;;;29.13;40.63;98865.25;5005482;28;20313;-63
2021/06/12 10:42:09;;;;;;;0.45;0.30;;;;;;;29.27;40.64;98863.00;5027803;28;20046;-63
2021/06/12 10:44:34;;;;;;;0.43;0.30;;;;;;;29.87;39.50;98856.50;5033689;28;20022;-64
2021/06/12 10:47:00;;;;;;;0.93;0.60;;;;;;;28.77;42.63;98857.72;5024099;28;20029;-63
2021/06/12 10:49:31;;;;;;;0.40;0.40;;;;;;;29.00;42.22;98851.06;5017771;28;20026;-63
2021/06/12 10:51:57;;;;;;;0.95;0.22;;;;;;;28.91;40.83;98851.88;5004582;28;20025;-63
2021/06/12 10:54:25;;;;;;;1.17;0.30;;;;;;;29.25;41.07;98853.28;5004561;28;20018;-63
2021/06/12 10:57:17;;;;;;;0.50;0.20;;;;;;;29.57;38.73;98855.72;5017196;28;20128;-63
2021/06/12 10:59:52;;;;;;;1.00;0.20;;;;;;;29.65;39.47;98850.50;5029079;28;20028;-63
2021/06/12 11:07:35;;;;;;;0.20;0.15;;;;;;;29.16;39.69;98851.41;5034694;28;20030;-63
2021/06/12 11:10:13;;;;;;;2.67;0.50;;;;;;;29.20;38.17;98855.59;5034200;28;20323;-63
2021/06/12 11:12:40;;;;;;;0.90;0.40;;;;;;;29.21;41.26;98863.53;5025340;28;20305;-63
2021/06/12 11:15:07;;;;;;;0.43;0.10;;;;;;;29.06;40.40;98856.84;5023899;28;20021;-63
2021/06/12 11:17:33;;;;;;;1.08;0.28;;;;;;;29.03;40.65;98848.97;5042168;28;20056;-63
2021/06/12 11:19:58;;;;;;;1.80;0.35;;;;;;;28.46;41.81;98837.91;5025833;28;20025;-63
2021/06/12 11:22:31;;;;;;;0.60;0.30;;;;;;;28.40;40.76;98843.84;5022660;28;20088;-63
2021/06/12 11:24:59;;;;;;;0.38;0.30;;;;;;;28.61;41.04;98847.41;5031045;28;20081;-63
2021/06/12 11:27:28;;;;;;;3.72;0.40;;;;;;;28.58;40.86;98836.84;5025720;28;20017;-63
2021/06/12 11:33:04;;;;;;;0.32;0.28;;;;;;;28.45;42.69;98852.47;5035752;28;20033;-63
2021/06/12 11:35:49;;;;;;;0.65;0.20;;;;;;;28.38;41.46;98851.22;5010069;28;20332;-63
2021/06/12 11:38:30;;;;;;;1.17;0.30;;;;;;;27.86;42.94;98854.06;5029413;28;20014;-63
2021/06/12 11:40:59;;;;;;;0.60;0.20;;;;;;;27.24;43.05;98850.41;5012914;28;20044;-63
2021/06/12 11:43:38;;;;;;;0.63;0.25;;;;;;;27.13;46.20;98853.09;5032543;28;20047;-63
2021/06/12 11:46:13;;;;;;;1.25;0.30;;;;;;;26.94;44.89;98852.88;5037522;28;20025;-63